sensor_id;sensor_type;location;lat;lon;timestamp;pressure;altitude;pressure_sealevel;temperature;humidity
72110;BME280;59983;52.010;5.420;2023-09-12T00:00:05;101275.97;;;20.44;100.00
72110;BME280;59983;52.010;5.420;2023-09-12T00:02:32;101283.03;;;20.42;100.00
72110;BME280;59983;52.010;5.420;2023-09-12T00:04:59;101281.84;;;20.39;100.00
72110;BME280;59983;52.010;5.420;2023-09-12T00:07:25;101290.50;;;20.45;100.00
72110;BME280;59983;52.010;5.420;2023-09-12T00:09:52;101288.13;;;20.47;100.00
72110;BME280;59983;52.010;5.420;2023-09-12T00:12:22;101282.63;;;20.47;100.00
72110;BME280;59983;52.010;5.420;2023-09-12T00:14:49;101279.91;;;20.43;100.00
72110;BME280;59983;52.010;5.420;2023-09-12T00:17:15;101276.34;;;20.39;100.00
72110;BME280;59983;52.010;5.420;2023-09-12T00:19:43;101279.16;;;20.32;100.00
72110;BME280;59983;52.010;5.420;2023-09-12T00:22:09;101270.50;;;20.26;100.00
72110;BME280;59983;52.010;5.420;2023-09-12T00:24:36;101268.53;;;20.27;100.00
72110;BME280;59983;52.010;5.420;2023-09-12T00:27:04;101266.16;;;20.29;100.00
72110;BME280;59983;52.010;5.420;2023-09-12T00:29:32;101262.66;;;20.25;100.00
72110;BME280;59983;52.010;5.420;2023-09-12T00:31:59;101265.81;;;20.23;100.00
72110;BME280;59983;52.010;5.420;2023-09-12T00:34:25;101255.97;;;20.19;100.00
72110;BME280;59983;52.010;5.420;2023-09-12T00:36:52;101254.44;;;20.11;100.00
72110;BME280;59983;52.010;5.420;2023-09-12T00:39:18;101260.34;;;20.09;100.00
72110;BME280;59983;52.010;5.420;2023-09-12T00:41:45;101265.47;;;20.07;100.00
72110;BME280;59983;52.010;5.420;2023-09-12T00:44:12;101276.09;;;20.05;100.00
72110;BME280;59983;52.010;5.420;2023-09-12T00:46:39;101281.63;;;20.01;100.00
72110;BME280;59983;52.010;5.420;2023-09-12T00:49:07;101281.63;;;19.94;100.00
72110;BME280;59983;52.010;5.420;2023-09-12T00:51:35;101283.63;;;19.90;100.00
72110;BME280;59983;52.010;5.420;2023-09-12T00:54:03;101284.81;;;19.86;100.00
72110;BME280;59983;52.010;5.420;2023-09-12T00:56:30;101281.28;;;19.82;100.00
72110;BME280;59983;52.010;5.420;2023-09-12T00:58:57;101290.72;;;19.84;100.00
72110;BME280;59983;52.010;5.420;2023-09-12T01:01:24;101284.44;;;19.73;100.00
72110;BME280;59983;52.010;5.420;2023-09-12T01:03:51;101273.06;;;19.60;100.00
72110;BME280;59983;52.010;5.420;2023-09-12T01:06:23;101275.41;;;19.51;100.00
72110;BME280;59983;52.010;5.420;2023-09-12T01:08:52;101285.63;;;19.47;100.00
72110;BME280;59983;52.010;5.420;2023-09-12T01:11:20;101277.00;;;19.45;100.00
72110;BME280;59983;52.010;5.420;2023-09-12T01:13:47;101274.63;;;19.43;100.00
72110;BME280;59983;52.010;5.420;2023-09-12T01:16:13;101280.94;;;19.26;100.00
72110;BME280;59983;52.010;5.420;2023-09-12T01:18:40;101279.38;;;19.18;100.00
72110;BME280;59983;52.010;5.420;2023-09-12T01:28:57;101285.66;;;19.11;100.00
72110;BME280;59983;52.010;5.420;2023-09-12T01:31:25;101270.31;;;19.14;100.00
72110;BME280;59983;52.010;5.420;2023-09-12T01:33:56;101274.25;;;19.13;100.00
72110;BME280;59983;52.010;5.420;2023-09-12T01:36:24;101277.38;;;19.15;100.00
72110;BME280;59983;52.010;5.420;2023-09-12T01:38:50;101281.31;;;19.14;100.00
72110;BME280;59983;52.010;5.420;2023-09-12T01:41:18;101275.44;;;19.12;100.00
72110;BME280;59983;52.010;5.420;2023-09-12T01:43:45;101269.94;;;19.08;100.00
72110;BME280;59983;52.010;5.420;2023-09-12T01:46:15;101267.56;;;18.92;100.00
72110;BME280;59983;52.010;5.420;2023-09-12T01:48:43;101266.00;;;18.84;100.00
72110;BME280;59983;52.010;5.420;2023-09-12T01:51:11;101266.78;;;18.85;100.00
72110;BME280;59983;52.010;5.420;2023-09-12T01:53:39;101271.88;;;18.83;100.00
72110;BME280;59983;52.010;5.420;2023-09-12T01:56:05;101275.81;;;18.82;100.00
72110;BME280;59983;52.010;5.420;2023-09-12T01:58:33;101261.66;;;18.76;100.00
72110;BME280;59983;52.010;5.420;2023-09-12T02:01:00;101266.34;;;18.72;100.00
72110;BME280;59983;52.010;5.420;2023-09-12T02:03:27;101263.22;;;18.70;100.00
72110;BME280;59983;52.010;5.420;2023-09-12T02:05:53;101260.47;;;18.70;100.00
72110;BME280;59983;52.010;5.420;2023-09-12T02:08:20;101258.88;;;18.73;100.00
72110;BME280;59983;52.010;5.420;2023-09-12T02:10:46;101249.50;;;18.74;100.00
72110;BME280;59983;52.010;5.420;2023-09-12T02:13:13;101256.56;;;18.75;100.00
72110;BME280;59983;52.010;5.420;2023-09-12T02:15:40;101258.50;;;18.71;100.00
72110;BME280;59983;52.010;5.420;2023-09-12T02:18:06;101258.44;;;18.63;100.00
72110;BME280;59983;52.010;5.420;2023-09-12T02:20:38;101253.00;;;18.67;100.00
72110;BME280;59983;52.010;5.420;2023-09-12T02:23:04;101259.28;;;18.71;100.00
72110;BME280;59983;52.010;5.420;2023-09-12T02:25:31;101246.75;;;18.74;100.00
72110;BME280;59983;52.010;5.420;2023-09-12T02:27:58;101251.81;;;18.72;100.00
72110;BME280;59983;52.010;5.420;2023-09-12T02:30:24;101259.69;;;18.70;100.00
72110;BME280;59983;52.010;5.420;2023-09-12T02:32:51;101256.16;;;18.69;100.00
72110;BME280;59983;52.010;5.420;2023-09-12T02:35:17;101257.66;;;18.63;100.00
72110;BME280;59983;52.010;5.420;2023-09-12T02:37:44;101259.22;;;18.64;100.00
72110;BME280;59983;52.010;5.420;2023-09-12T02:40:11;101263.59;;;18.65;100.00
72110;BME280;59983;52.010;5.420;2023-09-12T02:42:38;101269.09;;;18.68;100.00
72110;BME280;59983;52.010;5.420;2023-09-12T02:45:05;101262.03;;;18.71;100.00
72110;BME280;59983;52.010;5.420;2023-09-12T02:47:32;101264.78;;;18.78;100.00
72110;BME280;59983;52.010;5.420;2023-09-12T02:49:58;101271.88;;;18.76;100.00
72110;BME280;59983;52.010;5.420;2023-09-12T02:52:25;101272.63;;;18.65;100.00
72110;BME280;59983;52.010;5.420;2023-09-12T02:54:51;101268.31;;;18.68;100.00
72110;BME280;59983;52.010;5.420;2023-09-12T02:57:18;101269.91;;;18.76;100.00
72110;BME280;59983;52.010;5.420;2023-09-12T02:59:45;101270.69;;;18.80;100.00
72110;BME280;59983;52.010;5.420;2023-09-12T03:02:11;101276.19;;;18.73;100.00
72110;BME280;59983;52.010;5.420;2023-09-12T03:04:38;101276.97;;;18.74;100.00
72110;BME280;59983;52.010;5.420;2023-09-12T03:07:04;101277.75;;;18.78;100.00
72110;BME280;59983;52.010;5.420;2023-09-12T03:09:31;101274.22;;;18.77;100.00
72110;BME280;59983;52.010;5.420;2023-09-12T03:11:58;101270.69;;;18.77;100.00
72110;BME280;59983;52.010;5.420;2023-09-12T03:14:24;101271.06;;;18.72;100.00
72110;BME280;59983;52.010;5.420;2023-09-12T03:16:53;101261.19;;;18.63;100.00
72110;BME280;59983;52.010;5.420;2023-09-12T03:19:20;101266.69;;;18.63;100.00
72110;BME280;59983;52.010;5.420;2023-09-12T03:21:47;101271.47;;;18.66;100.00
72110;BME280;59983;52.010;5.420;2023-09-12T03:24:13;101273.41;;;18.70;100.00
72110;BME280;59983;52.010;5.420;2023-09-12T03:26:40;101264.38;;;18.73;100.00
72110;BME280;59983;52.010;5.420;2023-09-12T03:29:06;101263.22;;;18.77;100.00
72110;BME280;59983;52.010;5.420;2023-09-12T03:31:35;101260.09;;;18.82;100.00
72110;BME280;59983;52.010;5.420;2023-09-12T03:34:01;101256.16;;;18.87;100.00
72110;BME280;59983;52.010;5.420;2023-09-12T03:36:28;101259.69;;;18.87;100.00
72110;BME280;59983;52.010;5.420;2023-09-12T03:38:55;101251.84;;;18.79;100.00
72110;BME280;59983;52.010;5.420;2023-09-12T03:41:21;101250.66;;;18.76;100.00
72110;BME280;59983;52.010;5.420;2023-09-12T03:43:55;101260.09;;;18.79;100.00
72110;BME280;59983;52.010;5.420;2023-09-12T03:46:21;101254.97;;;18.81;100.00
72110;BME280;59983;52.010;5.420;2023-09-12T03:48:48;101258.53;;;18.85;100.00
72110;BME280;59983;52.010;5.420;2023-09-12T03:51:15;101253.44;;;18.83;100.00
72110;BME280;59983;52.010;5.420;2023-09-12T03:53:42;101251.47;;;18.87;100.00
72110;BME280;59983;52.010;5.420;2023-09-12T03:56:08;101251.47;;;18.91;100.00
72110;BME280;59983;52.010;5.420;2023-09-12T03:58:39;101252.25;;;18.88;100.00
72110;BME280;59983;52.010;5.420;2023-09-12T04:01:06;101249.50;;;18.88;100.00
72110;BME280;59983;52.010;5.420;2023-09-12T04:03:33;101259.31;;;18.89;100.00
72110;BME280;59983;52.010;5.420;2023-09-12T04:06:00;101259.69;;;18.80;100.00
72110;BME280;59983;52.010;5.420;2023-09-12T04:08:26;101254.56;;;18.72;100.00
72110;BME280;59983;52.010;5.420;2023-09-12T04:10:53;101258.53;;;18.74;100.00
72110;BME280;59983;52.010;5.420;2023-09-12T04:13:19;101251.06;;;18.75;100.00
72110;BME280;59983;52.010;5.420;2023-09-12T04:15:46;101249.88;;;18.79;100.00
72110;BME280;59983;52.010;5.420;2023-09-12T04:18:13;101243.19;;;18.70;100.00
72110;BME280;59983;52.010;5.420;2023-09-12T04:20:39;101244.75;;;18.67;100.00
72110;BME280;59983;52.010;5.420;2023-09-12T04:23:06;101250.66;;;18.69;100.00
72110;BME280;59983;52.010;5.420;2023-09-12T04:25:33;101243.59;;;18.68;100.00
72110;BME280;59983;52.010;5.420;2023-09-12T04:27:59;101253.41;;;18.69;100.00
72110;BME280;59983;52.010;5.420;2023-09-12T04:30:26;101242.78;;;18.71;100.00
72110;BME280;59983;52.010;5.420;2023-09-12T04:32:53;101229.44;;;18.70;100.00
72110;BME280;59983;52.010;5.420;2023-09-12T04:35:19;101232.94;;;18.63;100.00
72110;BME280;59983;52.010;5.420;2023-09-12T04:37:47;101228.22;;;18.56;100.00
72110;BME280;59983;52.010;5.420;2023-09-12T04:40:14;101232.53;;;18.61;100.00
72110;BME280;59983;52.010;5.420;2023-09-12T04:42:40;101230.59;;;18.61;100.00
72110;BME280;59983;52.010;5.420;2023-09-12T04:45:07;101233.34;;;18.61;100.00
72110;BME280;59983;52.010;5.420;2023-09-12T04:47:34;101245.09;;;18.58;100.00
72110;BME280;59983;52.010;5.420;2023-09-12T04:50:00;101236.88;;;18.58;100.00
72110;BME280;59983;52.010;5.420;2023-09-12T04:52:28;101238.44;;;18.63;100.00
72110;BME280;59983;52.010;5.420;2023-09-12T04:54:57;101226.25;;;18.60;100.00
72110;BME280;59983;52.010;5.420;2023-09-12T04:57:24;101232.56;;;18.57;100.00
72110;BME280;59983;52.010;5.420;2023-09-12T04:59:51;101243.16;;;18.55;100.00
72110;BME280;59983;52.010;5.420;2023-09-12T05:02:19;101240.78;;;18.61;100.00
72110;BME280;59983;52.010;5.420;2023-09-12T05:04:45;101247.13;;;18.65;100.00
72110;BME280;59983;52.010;5.420;2023-09-12T05:07:12;101251.03;;;18.71;100.00
72110;BME280;59983;52.010;5.420;2023-09-12T05:09:39;101248.28;;;18.71;100.00
72110;BME280;59983;52.010;5.420;2023-09-12T05:12:05;101244.38;;;18.65;100.00
72110;BME280;59983;52.010;5.420;2023-09-12T05:14:32;101254.91;;;18.59;100.00
72110;BME280;59983;52.010;5.420;2023-09-12T05:16:58;101249.81;;;18.58;100.00
72110;BME280;59983;52.010;5.420;2023-09-12T05:19:25;101256.88;;;18.59;100.00
72110;BME280;59983;52.010;5.420;2023-09-12T05:21:52;101253.34;;;18.58;100.00
72110;BME280;59983;52.010;5.420;2023-09-12T05:24:19;101252.53;;;18.54;100.00
72110;BME280;59983;52.010;5.420;2023-09-12T05:26:46;101239.19;;;18.53;100.00
72110;BME280;59983;52.010;5.420;2023-09-12T05:29:14;101252.16;;;18.52;100.00
72110;BME280;59983;52.010;5.420;2023-09-12T05:31:40;101244.66;;;18.46;100.00
72110;BME280;59983;52.010;5.420;2023-09-12T05:34:07;101246.25;;;18.43;100.00
72110;BME280;59983;52.010;5.420;2023-09-12T05:36:34;101238.41;;;18.42;100.00
72110;BME280;59983;52.010;5.420;2023-09-12T05:39:00;101231.34;;;18.40;100.00
72110;BME280;59983;52.010;5.420;2023-09-12T05:41:27;101241.94;;;18.42;100.00
72110;BME280;59983;52.010;5.420;2023-09-12T05:43:53;101250.59;;;18.51;100.00
72110;BME280;59983;52.010;5.420;2023-09-12T05:46:20;101252.97;;;18.56;100.00
72110;BME280;59983;52.010;5.420;2023-09-12T05:48:46;101243.53;;;18.61;100.00
72110;BME280;59983;52.010;5.420;2023-09-12T05:51:13;101248.25;;;18.64;100.00
72110;BME280;59983;52.010;5.420;2023-09-12T05:53:39;101248.25;;;18.64;100.00
72110;BME280;59983;52.010;5.420;2023-09-12T05:56:06;101244.75;;;18.67;100.00
72110;BME280;59983;52.010;5.420;2023-09-12T05:58:33;101245.56;;;18.67;100.00
72110;BME280;59983;52.010;5.420;2023-09-12T06:01:00;101253.00;;;18.67;100.00
72110;BME280;59983;52.010;5.420;2023-09-12T06:03:27;101258.50;;;18.67;100.00
72110;BME280;59983;52.010;5.420;2023-09-12T06:05:54;101268.31;;;18.68;100.00
72110;BME280;59983;52.010;5.420;2023-09-12T06:08:20;101267.94;;;18.73;100.00
72110;BME280;59983;52.010;5.420;2023-09-12T06:10:47;101269.13;;;18.79;100.00
72110;BME280;59983;52.010;5.420;2023-09-12T06:13:15;101261.66;;;18.80;100.00
72110;BME280;59983;52.010;5.420;2023-09-12T06:15:41;101267.94;;;18.80;100.00
72110;BME280;59983;52.010;5.420;2023-09-12T06:18:08;101276.56;;;18.79;100.00
72110;BME280;59983;52.010;5.420;2023-09-12T06:20:35;101279.72;;;18.88;100.00
72110;BME280;59983;52.010;5.420;2023-09-12T06:23:02;101280.91;;;18.90;100.00
72110;BME280;59983;52.010;5.420;2023-09-12T06:25:29;101283.66;;;18.90;100.00
72110;BME280;59983;52.010;5.420;2023-09-12T06:27:56;101286.41;;;18.90;100.00
72110;BME280;59983;52.010;5.420;2023-09-12T06:30:22;101278.16;;;18.90;100.00
72110;BME280;59983;52.010;5.420;2023-09-12T06:32:49;101286.00;;;18.88;100.00
72110;BME280;59983;52.010;5.420;2023-09-12T06:35:16;101291.13;;;18.93;100.00
72110;BME280;59983;52.010;5.420;2023-09-12T06:37:43;101284.47;;;18.91;100.00
72110;BME280;59983;52.010;5.420;2023-09-12T06:40:10;101278.97;;;18.94;100.00
72110;BME280;59983;52.010;5.420;2023-09-12T06:42:36;101287.63;;;19.00;100.00
72110;BME280;59983;52.010;5.420;2023-09-12T06:45:03;101286.03;;;18.99;100.00
72110;BME280;59983;52.010;5.420;2023-09-12T06:47:30;101289.56;;;19.03;100.00
72110;BME280;59983;52.010;5.420;2023-09-12T06:49:57;101290.75;;;19.09;100.00
72110;BME280;59983;52.010;5.420;2023-09-12T06:52:23;101296.63;;;19.15;100.00
72110;BME280;59983;52.010;5.420;2023-09-12T06:54:50;101291.94;;;19.19;100.00
72110;BME280;59983;52.010;5.420;2023-09-12T06:57:16;101293.91;;;19.22;100.00
72110;BME280;59983;52.010;5.420;2023-09-12T06:59:43;101284.88;;;19.21;100.00
72110;BME280;59983;52.010;5.420;2023-09-12T07:02:10;101286.81;;;19.32;100.00
72110;BME280;59983;52.010;5.420;2023-09-12T07:04:39;101286.44;;;19.37;100.00
72110;BME280;59983;52.010;5.420;2023-09-12T07:07:05;101285.25;;;19.45;100.00
72110;BME280;59983;52.010;5.420;2023-09-12T07:09:32;101282.88;;;19.47;100.00
72110;BME280;59983;52.010;5.420;2023-09-12T07:12:00;101289.94;;;19.51;100.00
72110;BME280;59983;52.010;5.420;2023-09-12T07:14:26;101282.50;;;19.56;100.00
72110;BME280;59983;52.010;5.420;2023-09-12T07:16:53;101291.16;;;19.58;100.00
72110;BME280;59983;52.010;5.420;2023-09-12T07:19:20;101283.28;;;19.60;100.00
72110;BME280;59983;52.010;5.420;2023-09-12T07:21:46;101277.78;;;19.63;100.00
72110;BME280;59983;52.010;5.420;2023-09-12T07:24:13;101284.47;;;19.66;100.00
72110;BME280;59983;52.010;5.420;2023-09-12T07:26:39;101288.78;;;19.67;100.00
72110;BME280;59983;52.010;5.420;2023-09-12T07:29:06;101288.81;;;19.63;100.00
72110;BME280;59983;52.010;5.420;2023-09-12T07:31:33;101285.25;;;19.66;100.00
72110;BME280;59983;52.010;5.420;2023-09-12T07:34:00;101289.19;;;19.58;100.00
72110;BME280;59983;52.010;5.420;2023-09-12T07:36:26;101282.88;;;19.61;100.00
72110;BME280;59983;52.010;5.420;2023-09-12T07:38:53;101286.81;;;19.64;100.00
72110;BME280;59983;52.010;5.420;2023-09-12T07:41:19;101295.47;;;19.73;100.00
72110;BME280;59983;52.010;5.420;2023-09-12T07:43:46;101304.47;;;19.84;100.00
72110;BME280;59983;52.010;5.420;2023-09-12T07:46:12;101289.06;;;20.04;100.00
72110;BME280;59983;52.010;5.420;2023-09-12T07:48:39;101301.22;;;20.14;100.00
72110;BME280;59983;52.010;5.420;2023-09-12T07:51:16;101291.72;;;20.29;100.00
72110;BME280;59983;52.010;5.420;2023-09-12T07:53:44;101288.16;;;20.43;100.00
72110;BME280;59983;52.010;5.420;2023-09-12T07:56:11;101298.72;;;20.55;100.00
72110;BME280;59983;52.010;5.420;2023-09-12T07:58:38;101299.06;;;20.64;100.00
72110;BME280;59983;52.010;5.420;2023-09-12T08:01:06;101302.56;;;20.72;100.00
72110;BME280;59983;52.010;5.420;2023-09-12T08:03:34;101305.31;;;20.72;100.00
72110;BME280;59983;52.010;5.420;2023-09-12T08:06:02;101315.53;;;20.75;100.00
72110;BME280;59983;52.010;5.420;2023-09-12T08:08:30;101311.63;;;20.73;100.00
72110;BME280;59983;52.010;5.420;2023-09-12T08:10:57;101315.56;;;20.72;100.00
72110;BME280;59983;52.010;5.420;2023-09-12T08:13:28;101325.00;;;20.78;100.00
72110;BME280;59983;52.010;5.420;2023-09-12T08:15:55;101323.03;;;20.78;100.00
72110;BME280;59983;52.010;5.420;2023-09-12T08:18:25;101323.81;;;20.79;100.00
72110;BME280;59983;52.010;5.420;2023-09-12T08:20:52;101321.75;;;20.90;100.00
72110;BME280;59983;52.010;5.420;2023-09-12T08:23:19;101325.28;;;20.94;100.00
72110;BME280;59983;52.010;5.420;2023-09-12T08:25:46;101328.84;;;20.95;100.00
72110;BME280;59983;52.010;5.420;2023-09-12T08:28:12;101324.88;;;20.92;100.00
72110;BME280;59983;52.010;5.420;2023-09-12T08:30:39;101322.13;;;20.92;100.00
72110;BME280;59983;52.010;5.420;2023-09-12T08:33:05;101320.25;;;20.78;100.00
72110;BME280;59983;52.010;5.420;2023-09-12T08:35:33;101323.03;;;20.75;100.00
72110;BME280;59983;52.010;5.420;2023-09-12T08:38:00;101319.38;;;20.96;100.00
72110;BME280;59983;52.010;5.420;2023-09-12T08:40:26;101314.13;;;21.12;100.00
72110;BME280;59983;52.010;5.420;2023-09-12T08:42:54;101315.19;;;21.32;100.00
72110;BME280;59983;52.010;5.420;2023-09-12T08:45:22;101312.72;;;21.41;100.00
72110;BME280;59983;52.010;5.420;2023-09-12T08:47:53;101318.13;;;21.56;100.00
72110;BME280;59983;52.010;5.420;2023-09-12T08:50:21;101318.22;;;21.45;100.00
72110;BME280;59983;52.010;5.420;2023-09-12T08:52:50;101315.19;;;21.29;100.00
72110;BME280;59983;52.010;5.420;2023-09-12T08:55:31;101313.69;;;21.20;100.00
72110;BME280;59983;52.010;5.420;2023-09-12T08:58:02;101316.03;;;21.18;100.00
72110;BME280;59983;52.010;5.420;2023-09-12T09:00:29;101304.16;;;21.25;100.00
72110;BME280;59983;52.010;5.420;2023-09-12T09:02:57;101317.00;;;21.46;100.00
72110;BME280;59983;52.010;5.420;2023-09-12T09:05:27;101316.94;;;21.57;100.00
72110;BME280;59983;52.010;5.420;2023-09-12T09:07:58;101313.63;;;21.72;100.00
72110;BME280;59983;52.010;5.420;2023-09-12T09:10:25;101319.84;;;21.80;100.00
72110;BME280;59983;52.010;5.420;2023-09-12T09:13:15;101322.28;;;21.74;100.00
72110;BME280;59983;52.010;5.420;2023-09-12T09:15:41;101327.91;;;21.64;100.00
72110;BME280;59983;52.010;5.420;2023-09-12T09:18:09;101333.16;;;21.51;100.00
72110;BME280;59983;52.010;5.420;2023-09-12T09:20:38;101338.31;;;21.45;100.00
72110;BME280;59983;52.010;5.420;2023-09-12T09:23:09;101339.91;;;21.43;100.00
72110;BME280;59983;52.010;5.420;2023-09-12T09:25:39;101333.50;;;21.57;100.00
72110;BME280;59983;52.010;5.420;2023-09-12T09:28:20;101333.00;;;21.69;100.00
72110;BME280;59983;52.010;5.420;2023-09-12T09:30:48;101335.75;;;21.69;100.00
72110;BME280;59983;52.010;5.420;2023-09-12T09:33:17;101339.28;;;21.69;100.00
72110;BME280;59983;52.010;5.420;2023-09-12T09:35:48;101340.69;;;21.88;100.00
72110;BME280;59983;52.010;5.420;2023-09-12T09:38:18;101343.75;;;21.97;100.00
72110;BME280;59983;52.010;5.420;2023-09-12T09:40:46;101341.16;;;21.83;100.00
72110;BME280;59983;52.010;5.420;2023-09-12T09:43:12;101352.56;;;21.82;100.00
72110;BME280;59983;52.010;5.420;2023-09-12T09:45:45;101343.50;;;21.81;100.00
72110;BME280;59983;52.010;5.420;2023-09-12T09:48:23;101340.78;;;21.77;100.00
72110;BME280;59983;52.010;5.420;2023-09-12T09:50:53;101337.91;;;21.88;100.00
72110;BME280;59983;52.010;5.420;2023-09-12T09:53:26;101334.69;;;21.97;100.00
72110;BME280;59983;52.010;5.420;2023-09-12T09:56:07;101333.78;;;22.11;100.00
72110;BME280;59983;52.010;5.420;2023-09-12T09:58:34;101337.63;;;22.17;100.00
72110;BME280;59983;52.010;5.420;2023-09-12T10:01:01;101347.03;;;22.23;100.00
72110;BME280;59983;52.010;5.420;2023-09-12T10:03:32;101335.13;;;22.29;100.00
72110;BME280;59983;52.010;5.420;2023-09-12T10:06:04;101335.06;;;22.33;100.00
72110;BME280;59983;52.010;5.420;2023-09-12T10:08:32;101336.75;;;22.27;100.00
72110;BME280;59983;52.010;5.420;2023-09-12T10:10:58;101345.03;;;22.27;100.00
72110;BME280;59983;52.010;5.420;2023-09-12T10:13:27;101340.31;;;22.24;100.00
72110;BME280;59983;52.010;5.420;2023-09-12T10:15:59;101339.13;;;22.25;100.00
72110;BME280;59983;52.010;5.420;2023-09-12T10:18:28;101331.94;;;22.31;100.00
72110;BME280;59983;52.010;5.420;2023-09-12T10:21:04;101323.53;;;22.42;100.00
72110;BME280;59983;52.010;5.420;2023-09-12T10:23:38;101321.88;;;22.48;100.00
72110;BME280;59983;52.010;5.420;2023-09-12T10:26:13;101316.66;;;22.53;100.00
72110;BME280;59983;52.010;5.420;2023-09-12T10:28:43;101318.53;;;22.60;100.00
72110;BME280;59983;52.010;5.420;2023-09-12T10:31:12;101321.69;;;22.62;100.00
72110;BME280;59983;52.010;5.420;2023-09-12T10:33:39;101326.53;;;22.54;100.00
72110;BME280;59983;52.010;5.420;2023-09-12T10:36:08;101331.28;;;22.54;100.00
72110;BME280;59983;52.010;5.420;2023-09-12T10:38:42;101336.41;;;22.52;100.00
72110;BME280;59983;52.010;5.420;2023-09-12T10:41:13;101332.06;;;22.54;100.00
72110;BME280;59983;52.010;5.420;2023-09-12T10:43:44;101339.09;;;22.59;100.00
72110;BME280;59983;52.010;5.420;2023-09-12T10:46:16;101324.47;;;22.62;100.00
72110;BME280;59983;52.010;5.420;2023-09-12T10:48:44;101327.06;;;22.73;100.00
72110;BME280;59983;52.010;5.420;2023-09-12T10:51:11;101326.66;;;22.74;100.00
72110;BME280;59983;52.010;5.420;2023-09-12T10:53:46;101331.41;;;22.74;100.00
72110;BME280;59983;52.010;5.420;2023-09-12T10:56:17;101337.97;;;22.83;100.00
72110;BME280;59983;52.010;5.420;2023-09-12T11:01:43;101333.69;;;22.79;100.00
72110;BME280;59983;52.010;5.420;2023-09-12T11:06:46;101337.97;;;22.83;100.00
72110;BME280;59983;52.010;5.420;2023-09-12T11:11:45;101337.59;;;22.85;100.00
72110;BME280;59983;52.010;5.420;2023-09-12T11:14:15;101335.81;;;22.98;100.00
72110;BME280;59983;52.010;5.420;2023-09-12T11:19:45;101318.38;;;23.01;100.00
72110;BME280;59983;52.010;5.420;2023-09-12T11:22:29;101314.38;;;23.06;100.00
72110;BME280;59983;52.010;5.420;2023-09-12T11:25:02;101305.16;;;23.12;100.00
72110;BME280;59983;52.010;5.420;2023-09-12T11:28:04;101309.69;;;23.26;100.00
72110;BME280;59983;52.010;5.420;2023-09-12T11:30:33;101302.94;;;23.51;100.00
72110;BME280;59983;52.010;5.420;2023-09-12T11:33:05;101309.09;;;23.62;100.00
72110;BME280;59983;52.010;5.420;2023-09-12T11:35:36;101309.19;;;23.78;100.00
72110;BME280;59983;52.010;5.420;2023-09-12T11:38:04;101306.22;;;23.89;100.00
72110;BME280;59983;52.010;5.420;2023-09-12T11:43:02;101317.44;;;23.82;100.00
72110;BME280;59983;52.010;5.420;2023-09-12T11:45:29;101314.97;;;23.87;100.00
72110;BME280;59983;52.010;5.420;2023-09-12T11:47:55;101319.50;;;23.97;100.00
72110;BME280;59983;52.010;5.420;2023-09-12T11:50:29;101309.63;;;24.16;100.00
72110;BME280;59983;52.010;5.420;2023-09-12T11:53:04;101323.00;;;24.21;100.00
72110;BME280;59983;52.010;5.420;2023-09-12T11:55:46;101321.50;;;24.17;100.00
72110;BME280;59983;52.010;5.420;2023-09-12T11:58:15;101316.31;;;24.19;99.75
72110;BME280;59983;52.010;5.420;2023-09-12T12:00:50;101327.25;;;24.26;99.62
72110;BME280;59983;52.010;5.420;2023-09-12T12:03:19;101321.22;;;24.31;98.54
72110;BME280;59983;52.010;5.420;2023-09-12T12:05:47;101315.97;;;24.37;97.40
72110;BME280;59983;52.010;5.420;2023-09-12T12:08:15;101315.31;;;24.49;96.79
72110;BME280;59983;52.010;5.420;2023-09-12T12:10:57;101309.16;;;24.41;93.78
72110;BME280;59983;52.010;5.420;2023-09-12T12:13:25;101300.81;;;24.41;97.00
72110;BME280;59983;52.010;5.420;2023-09-12T12:15:52;101295.19;;;24.45;95.78
72110;BME280;59983;52.010;5.420;2023-09-12T12:18:19;101294.06;;;24.42;95.08
72110;BME280;59983;52.010;5.420;2023-09-12T12:20:46;101296.75;;;24.46;93.40
72110;BME280;59983;52.010;5.420;2023-09-12T12:23:12;101286.88;;;24.45;92.21
72110;BME280;59983;52.010;5.420;2023-09-12T12:25:39;101292.41;;;24.45;91.29
72110;BME280;59983;52.010;5.420;2023-09-12T12:28:06;101290.50;;;24.42;92.65
72110;BME280;59983;52.010;5.420;2023-09-12T12:30:34;101295.72;;;24.40;91.06
72110;BME280;59983;52.010;5.420;2023-09-12T12:33:05;101289.72;;;24.41;91.47
72110;BME280;59983;52.010;5.420;2023-09-12T12:36:03;101291.91;;;24.50;89.87
72110;BME280;59983;52.010;5.420;2023-09-12T12:38:34;101285.69;;;24.62;91.30
72110;BME280;59983;52.010;5.420;2023-09-12T12:41:26;101289.69;;;24.61;90.91
72110;BME280;59983;52.010;5.420;2023-09-12T12:44:05;101283.19;;;24.68;90.49
72110;BME280;59983;52.010;5.420;2023-09-12T12:46:32;101277.41;;;24.78;89.12
72110;BME280;59983;52.010;5.420;2023-09-12T12:48:59;101278.34;;;24.88;89.29
72110;BME280;59983;52.010;5.420;2023-09-12T12:51:25;101280.34;;;24.88;88.90
72110;BME280;59983;52.010;5.420;2023-09-12T12:54:03;101277.75;;;24.97;89.84
72110;BME280;59983;52.010;5.420;2023-09-12T12:56:30;101278.06;;;25.02;88.53
72110;BME280;59983;52.010;5.420;2023-09-12T12:58:59;101274.97;;;24.97;91.39
72110;BME280;59983;52.010;5.420;2023-09-12T13:01:29;101283.03;;;24.91;88.86
72110;BME280;59983;52.010;5.420;2023-09-12T13:03:56;101280.97;;;24.95;90.14
72110;BME280;59983;52.010;5.420;2023-09-12T13:06:23;101275.06;;;24.93;90.33